• Join FlightAware (Why Join?)
  • Login
  • US Flag 
09:49PM EDT


 

Airport Tracker/Info


-or-


 

Live Flight TrackerFlight Track Log ✈ VH-FDJ ✈ 19-Aug-2013 ✈ YPAD / ADL - YBAS / ASP

Flight Track Log - Related Links

Times and Time Zones

All times are in EDT time to prevent confusion due to time zone crossing. See the VH-FDJ flight status page for this flight to view local times or setup timezone preferences in your user account.

Time Position Orientation Groundspeed Altitude Reporting Facility
EDT Latitude Longitude Course Direction KTS MPH feet Rate Location/Type
03:42AM -34.9551 138.5222 289° West 82 94 1,100  Level Aus ATC (RADAR)
03:43AM -34.9443 138.4843 289° West 135 155 3,100 1,500 Climbing Aus ATC (RADAR)
03:44AM -34.9253 138.4681 325° Northwest 140 161 4,200 1,800 Climbing Aus ATC (RADAR)
03:45AM -34.8929 138.4478 333° Northwest 150 173 5,800 1,620 Climbing Aus ATC (RADAR)
03:45AM -34.8644 138.4430 352° North 154 177 6,800 1,380 Climbing Aus ATC (RADAR)
03:47AM -34.8174 138.4337 351° North 159 183 8,300 1,320 Climbing Aus ATC (RADAR)
03:47AM -34.7843 138.4266 350° North 160 184 9,300 1,200 Climbing Aus ATC (RADAR)
03:48AM -34.7413 138.4170 350° North 174 200 10,300 1,020 Climbing Aus ATC (RADAR)
03:49AM -34.7160 138.4117 350° North 184 212 10,800 1,200 Climbing Aus ATC (RADAR)
03:50AM -34.6699 138.4018 350° North 182 209 12,000 1,140 Climbing Aus ATC (RADAR)
03:50AM -34.6284 138.3926 350° North 182 209 12,800 960 Climbing Aus ATC (RADAR)
03:51AM -34.5990 138.3862 350° North 184 212 13,400 1,080 Climbing Aus ATC (RADAR)
03:52AM -34.5607 138.3773 349° North 187 215 14,300 1,200 Climbing Aus ATC (RADAR)
03:52AM -34.5352 138.3721 351° North 185 213 14,900 1,200 Climbing Aus ATC (RADAR)
03:53AM -34.5053 138.3654 350° North 186 214 15,600 1,080 Climbing Aus ATC (RADAR)
03:54AM -34.4626 138.3555 349° North 188 216 16,500 1,200 Climbing Aus ATC (RADAR)
03:55AM -34.4149 138.3356 341° North 177 204 17,800 900 Climbing Aus ATC (RADAR)
03:56AM -34.3739 138.3164 339° North 194 223 18,200 240 Climbing Aus ATC (RADAR)
03:56AM -34.3408 138.2997 337° Northwest 220 253 18,200  Level Aus ATC (RADAR)
03:57AM -34.2936 138.2771 338° Northwest 245 282 18,200  Level Aus ATC (RADAR)
03:58AM -34.2281 138.2459 338° Northwest 255 293 18,200  Level Aus ATC (RADAR)
03:59AM -34.1617 138.2134 338° Northwest 258 297 18,200  Level Aus ATC (RADAR)
04:00AM -34.1056 138.1870 339° North 260 299 18,200  Level Aus ATC (RADAR)
04:00AM -34.0548 138.1626 338° Northwest 262 302 18,200  Level Aus ATC (RADAR)
04:01AM -34.0097 138.1403 338° Northwest 263 303 18,200  Level Aus ATC (RADAR)
04:02AM -33.9531 138.1138 339° North 264 304 18,200  Level Aus ATC (RADAR)
04:03AM -33.8851 138.0813 338° Northwest 263 303 18,200  Level Aus ATC (RADAR)
04:04AM -33.8232 138.0509 338° Northwest 263 303 18,200  Level Aus ATC (RADAR)
04:05AM -33.7556 138.0188 338° Northwest 262 302 18,200  Level Aus ATC (RADAR)
04:06AM -33.7043 137.9953 339° North 262 302 18,200  Level Aus ATC (RADAR)
04:06AM -33.6597 137.9724 337° Northwest 263 303 18,200  Level Aus ATC (RADAR)
04:07AM -33.6087 137.9494 339° North 262 302 18,200  Level Aus ATC (RADAR)
04:08AM -33.5353 137.9136 338° Northwest 264 304 18,200  Level Aus ATC (RADAR)
04:09AM -33.4786 137.8866 338° Northwest 263 303 18,200  Level Aus ATC (RADAR)
04:10AM -33.4104 137.8545 339° North 262 302 18,200  Level Aus ATC (RADAR)
04:11AM -33.3592 137.8309 339° North 263 303 18,200  Level Aus ATC (RADAR)
04:11AM -33.3197 137.8116 338° Northwest 263 303 18,200  Level Aus ATC (RADAR)
04:12AM -33.2637 137.7839 338° Northwest 262 302 18,200  Level Aus ATC (RADAR)
04:13AM -33.1960 137.7532 339° North 261 300 18,200  Level Aus ATC (RADAR)
04:14AM -33.1347 137.7234 338° Northwest 260 299 18,200  Level Aus ATC (RADAR)
04:15AM -33.0667 137.6933 340° North 261 300 18,200  Level Aus ATC (RADAR)
04:16AM -33.0166 137.6691 338° Northwest 261 300 18,200  Level Aus ATC (RADAR)
04:16AM -32.9783 137.6482 335° Northwest 261 300 18,200 60 Level Aus ATC (RADAR)
04:17AM -32.9382 137.6329 342° North 259 298 18,300 60 Climbing Aus ATC (RADAR)
04:18AM -32.8989 137.6144 339° North 260 299 18,300  Level Aus ATC (RADAR)
04:18AM -32.8592 137.5972 340° North 261 300 18,300  Level Aus ATC (RADAR)
04:19AM -32.7974 137.5689 339° North 261 300 18,300  Level Aus ATC (RADAR)
04:20AM -32.7315 137.5341 336° Northwest 260 299 18,300  Level Aus ATC (RADAR)
04:21AM -32.6809 137.5092 337° Northwest 263 303 18,300  Level Aus ATC (RADAR)
04:21AM -32.6407 137.4916 340° North 265 305 18,300  Level Aus ATC (RADAR)
04:22AM -32.5958 137.4685 337° Northwest 263 303 18,300  Level Aus ATC (RADAR)
04:23AM -32.5219 137.4365 340° North 262 302 18,300  Level Aus ATC (RADAR)
04:24AM -32.4531 137.4090 341° North 262 302 18,300  Level Aus ATC (RADAR)
04:25AM -32.3868 137.3751 337° Northwest 261 300 18,300  Level Aus ATC (RADAR)
04:26AM -32.3369 137.3509 338° Northwest 258 297 18,300  Level Aus ATC (RADAR)
04:26AM -32.2982 137.3313 337° Northwest 259 298 18,300  Level Aus ATC (RADAR)
04:27AM -32.2584 137.3155 341° North 259 298 18,300  Level Aus ATC (RADAR)
04:27AM -32.2248 137.3022 341° North 256 295 18,300  Level Aus ATC (RADAR)
04:28AM -32.1861 137.2853 340° North 255 293 18,300  Level Aus ATC (RADAR)
04:29AM -32.1205 137.2533 338° Northwest 255 293 18,300  Level Aus ATC (RADAR)
04:30AM -32.0545 137.2237 339° North 253 291 18,300  Level Aus ATC (RADAR)
04:31AM -32.0046 137.2031 341° North 253 291 18,300  Level Aus ATC (RADAR)
04:31AM -31.9662 137.1854 339° North 254 292 18,300  Level Aus ATC (RADAR)
04:32AM -31.9275 137.1685 340° North 255 293 18,300  Level Aus ATC (RADAR)
04:33AM -31.8891 137.1501 338° Northwest 256 295 18,300  Level Aus ATC (RADAR)
04:33AM -31.8498 137.1345 341° North 256 295 18,300  Level Aus ATC (RADAR)
04:34AM -31.7740 137.0965 337° Northwest 254 292 18,300  Level Aus ATC (RADAR)
04:35AM -31.7303 137.0757 338° Northwest 254 292 18,300  Level Aus ATC (RADAR)
04:37AM -31.5836 137.0085 339° North 18,000 -120 Descending Aus ATC (Calculated)
04:38AM -31.5286 136.9834 339° North 18,000  Level Aus ATC (Calculated)
04:40AM -31.4431 136.9444 339° North  Level FlightAware Approximate
04:41AM -31.3841 136.9175 339° North  Level FlightAware Approximate
04:42AM -31.3251 136.8907 339° North  Level FlightAware Approximate
04:43AM -31.2661 136.8639 339° North  Level FlightAware Approximate
04:44AM -31.2071 136.8371 339° North  Level FlightAware Approximate
04:44AM -31.1916 136.8301 341° North 18,000  Level Aus ATC (Calculated)
04:45AM -31.0977 136.7926 227° Southwest 18,000  Level Aus ATC (Calculated)
04:46AM -31.1007 136.7889 339° North  Level FlightAware Approximate
04:47AM -31.1677 136.8165 164° South  Level FlightAware Approximate
04:48AM -31.1060 136.7954 344° North  Level FlightAware Approximate
04:49AM -31.1285 136.8023 341° North  Level FlightAware Approximate
04:50AM -31.0676 136.7781 341° North  Level FlightAware Approximate
04:51AM -31.0067 136.7540 341° North  Level FlightAware Approximate
04:52AM -30.9458 136.7299 341° North  Level FlightAware Approximate
04:53AM -30.8849 136.7058 341° North  Level FlightAware Approximate
04:54AM -30.8240 136.6818 341° North  Level FlightAware Approximate
04:55AM -30.7630 136.6578 341° North  Level FlightAware Approximate
04:56AM -30.7021 136.6338 341° North  Level FlightAware Approximate
04:57AM -30.6412 136.6099 341° North  Level FlightAware Approximate
04:58AM -30.5802 136.5859 341° North  Level FlightAware Approximate
04:59AM -30.5193 136.5621 341° North  Level FlightAware Approximate
05:00AM -30.4584 136.5382 341° North  Level FlightAware Approximate
05:01AM -30.3974 136.5144 341° North  Level FlightAware Approximate
05:02AM -30.3365 136.4906 341° North  Level FlightAware Approximate
05:03AM -30.2755 136.4668 341° North  Level FlightAware Approximate
05:04AM -30.2146 136.4431 341° North  Level FlightAware Approximate
05:05AM -30.1536 136.4194 341° North  Level FlightAware Approximate
05:06AM -30.0926 136.3957 341° North  Level FlightAware Approximate
05:06AM -29.7760 136.2734 360° North 18,000  Level Aus ATC (Calculated)
05:06AM -29.7760 136.2734 341° North 18,000  Level Aus ATC (Calculated)
05:08AM -29.6602 136.2286 341° North  Level FlightAware Approximate
05:09AM -29.7211 136.2522 161° South  Level FlightAware Approximate
05:09AM -29.6208 136.2141 360° North 18,000  Level Aus ATC (Calculated)
05:09AM -29.6208 136.2141 342° North 18,000  Level Aus ATC (Calculated)
05:10AM -29.4869 136.1638 162° South 18,000  Level Aus ATC (Calculated)
05:11AM -29.7389 136.2585 162° South  Level FlightAware Approximate
05:12AM -29.5635 136.1926 162° South  Level FlightAware Approximate
05:13AM -29.5021 136.1667 342° North  Level Estimated
05:13AM -29.3529 136.1137 342° North 18,000  Level Aus ATC (Calculated)
05:14AM -29.2859 136.0887 341° North 18,000  Level Aus ATC (Calculated)
05:15AM -29.2526 136.0755 342° North  Level FlightAware Approximate
05:16AM -29.2093 136.0596 342° North  Level FlightAware Approximate
05:17AM -29.1473 136.0360 342° North  Level FlightAware Approximate
05:18AM -29.0852 136.0125 342° North  Level FlightAware Approximate
05:19AM -29.0231 135.9890 342° North  Level FlightAware Approximate
05:20AM -28.9611 135.9655 342° North  Level FlightAware Approximate
05:21AM -28.8990 135.9421 342° North  Level FlightAware Approximate
05:22AM -28.8369 135.9187 342° North  Level FlightAware Approximate
05:22AM -28.8167 135.9144 342° North 18,000  Level Aus ATC (Calculated)
05:24AM -28.7071 135.8729 342° North  Level FlightAware Approximate
05:25AM -28.6451 135.8494 342° North  Level FlightAware Approximate
05:26AM -28.5830 135.8260 342° North  Level FlightAware Approximate
05:27AM -28.5209 135.8025 342° North  Level FlightAware Approximate
05:28AM -28.4589 135.7791 342° North  Level FlightAware Approximate
05:29AM -28.3968 135.7558 342° North  Level FlightAware Approximate
05:30AM -28.3347 135.7325 342° North  Level FlightAware Approximate
05:31AM -28.2727 135.7091 342° North  Level FlightAware Approximate
05:32AM -28.2106 135.6859 342° North  Level FlightAware Approximate
05:33AM -28.1485 135.6626 342° North  Level FlightAware Approximate
05:34AM -28.0864 135.6394 342° North  Level FlightAware Approximate
05:35AM -28.0243 135.6162 342° North  Level FlightAware Approximate
05:36AM -27.9623 135.5930 342° North  Level FlightAware Approximate
05:37AM -27.9002 135.5699 342° North  Level FlightAware Approximate
05:38AM -27.8381 135.5467 342° North  Level FlightAware Approximate
05:38AM -27.8105 135.5462 330° Northwest 18,000  Level Aus ATC (Calculated)
05:39AM -27.7760 135.5236 342° North  Level FlightAware Approximate
05:40AM -27.7336 135.5147 340° North  Level FlightAware Approximate
05:41AM -27.6722 135.4896 340° North  Level FlightAware Approximate
05:42AM -27.6107 135.4644 340° North  Level FlightAware Approximate
05:43AM -27.5492 135.4393 340° North  Level FlightAware Approximate
05:43AM -27.4649 135.4141 163° South 18,000  Level Aus ATC (Calculated)
05:44AM -27.6107 135.4645 160° South  Level FlightAware Approximate
05:44AM -27.4649 135.4141 165° South 18,000  Level Aus ATC (Calculated)
05:46AM -27.5632 135.4442 165° South  Level FlightAware Approximate
05:47AM -27.5011 135.4252 345° North  Level FlightAware Approximate
05:48AM -27.5237 135.4281 339° North  Level FlightAware Approximate
05:49AM -27.4637 135.4021 339° North  Level FlightAware Approximate
05:49AM -27.1564 135.2743 338° Northwest 18,000  Level Aus ATC (Calculated)
05:51AM -27.0818 135.2406 338° Northwest  Level FlightAware Approximate
05:52AM -27.0222 135.2137 338° Northwest  Level FlightAware Approximate
05:52AM -27.0022 135.2047 338° Northwest 18,000  Level Aus ATC (Calculated)
05:53AM -26.9250 135.1700 360° North 18,000  Level Aus ATC (Calculated)
05:53AM -26.9250 135.1700 339° North 18,000  Level Aus ATC (Calculated)
05:54AM -26.8662 135.1450 159° South 18,000  Level Aus ATC (Calculated)
05:56AM -26.9390 135.1759 159° South  Level FlightAware Approximate
05:56AM -26.7485 135.0952 159° South 18,000  Level Aus ATC (Calculated)
05:57AM -26.8791 135.1505 339° North  Level FlightAware Approximate
05:58AM -26.8153 135.1235 159° South  Level FlightAware Approximate
05:59AM -26.8751 135.1488 159° South  Level FlightAware Approximate
06:00AM -26.9350 135.1742 159° South  Level FlightAware Approximate
06:01AM -26.8751 135.1489 339° North  Level FlightAware Approximate
06:02AM -26.8904 135.1553 339° North  Level FlightAware Approximate
06:02AM -26.4542 134.9710 339° North 18,000  Level Aus ATC (Calculated)
06:03AM -26.3944 134.9458 339° North  Level FlightAware Approximate
06:04AM -26.3345 134.9206 339° North  Level FlightAware Approximate
06:05AM -26.2746 134.8955 339° North  Level FlightAware Approximate
06:06AM -26.2147 134.8704 339° North  Level FlightAware Approximate
06:06AM -26.1598 134.8474 339° North 18,000  Level Aus ATC (Calculated)
06:07AM -26.1009 134.8228 339° North 18,000  Level Aus ATC (Calculated)
06:09AM -25.9871 134.7752 339° North  Level FlightAware Approximate
06:10AM -25.9272 134.7502 339° North  Level FlightAware Approximate
06:11AM -25.8673 134.7253 339° North  Level FlightAware Approximate
06:12AM -25.8074 134.7003 339° North  Level FlightAware Approximate
06:13AM -25.7475 134.6754 339° North  Level FlightAware Approximate
06:14AM -25.6876 134.6506 339° North  Level FlightAware Approximate
06:15AM -25.6277 134.6257 339° North  Level FlightAware Approximate
06:16AM -25.5677 134.6009 340° North  Level FlightAware Approximate
06:17AM -25.5078 134.5761 340° North  Level FlightAware Approximate
06:18AM -25.4479 134.5513 340° North  Level FlightAware Approximate
06:19AM -25.3879 134.5265 340° North  Level FlightAware Approximate
06:20AM -25.3280 134.5018 340° North  Level FlightAware Approximate
06:21AM -25.2680 134.4771 340° North  Level FlightAware Approximate
06:22AM -25.2081 134.4524 340° North  Level FlightAware Approximate
06:23AM -25.1481 134.4277 340° North  Level FlightAware Approximate
06:24AM -25.0882 134.4031 340° North  Level FlightAware Approximate
06:25AM -25.0282 134.3785 340° North  Level FlightAware Approximate
06:25AM -25.0400 134.3833 270° West 2,800  Level Aus ATC (Calculated)
06:26AM -25.0400 134.3127 270° West  Level FlightAware Approximate
06:26AM -24.9621 134.3515 160° South 2,800  Level Aus ATC (Calculated)
06:28AM -25.0501 134.3875 160° South  Level FlightAware Approximate
06:29AM -24.9901 134.3629 340° North  Level FlightAware Approximate
06:30AM -25.0501 134.3875 160° South  Level FlightAware Approximate
06:31AM -24.9901 134.3629 340° North  Level FlightAware Approximate
06:32AM -25.0501 134.3875 160° South  Level FlightAware Approximate
06:33AM -24.9901 134.3629 340° North  Level FlightAware Approximate
06:34AM -25.0501 134.3875 160° South  Level FlightAware Approximate
06:35AM -25.0116 134.3717 340° North  Level FlightAware Approximate
06:35AM -24.4166 134.1295 340° North 2,800  Level Aus ATC (Calculated)
06:37AM -24.3486 134.1020 340° North  Level FlightAware Approximate
06:38AM -24.2885 134.0777 340° North  Level FlightAware Approximate
06:38AM -24.3386 134.0980 340° North 2,800  Level Aus ATC (Calculated)
06:39AM -24.2607 134.0665 340° North 2,800  Level Aus ATC (Calculated)
06:40AM -24.2456 134.0604 340° North  Level FlightAware Approximate
06:40AM -24.1827 134.0350 160° South 2,800  Level Aus ATC (Calculated)
06:41AM -24.1926 134.0390 340° North  Level FlightAware Approximate
06:42AM -24.0996 134.0015 340° North  Level FlightAware Approximate
06:43AM -24.0396 133.9774 340° North  Level FlightAware Approximate
06:43AM -24.0267 133.9722 340° North 2,800  Level Aus ATC (Calculated)
06:44AM -23.9487 133.9408 360° North 2,800  Level Aus ATC (Calculated)
06:45AM -23.9487 133.9408 340° North 2,800  Level Aus ATC (Calculated)
06:47AM -23.8296 133.8930 340° North  Level FlightAware Approximate
06:48AM -23.8067 133.9022 340° North  Level Estimated
06:49AM -23.8067 133.9022 302° West  Level Estimated
06:50AM -23.8067 133.9022 302° West  Level Estimated